Time;durP1;ratioP1;P1;durP2;ratioP2;P2;SDS_P1;SDS_P2;PMS_P1;PMS_P2;Temp;Humidity;BMP_temperature;BMP_pressure;BME280_temperature;BME280_humidity;BME280_pressure;Samples;Min_cycle;Max_cycle;Signal;HPM_P1;HPM_P2
2023/02/22 00:00:49;;;;;;;14.90;9.80;;;11.10;90.10;;;;;;5075520;28;20473;-82
2023/02/22 00:03:17;;;;;;;15.35;10.10;;;11.10;90.10;;;;;;5093075;28;20026;-82
2023/02/22 00:05:46;;;;;;;14.50;9.65;;;11.10;90.10;;;;;;5075416;28;20023;-82
2023/02/22 00:08:16;;;;;;;15.45;9.70;;;11.10;90.10;;;;;;5075947;28;20024;-81
2023/02/22 00:10:42;;;;;;;15.05;9.90;;;11.00;90.10;;;;;;5093576;28;20024;-82
2023/02/22 00:13:09;;;;;;;17.35;10.93;;;11.10;90.10;;;;;;5093398;28;20047;-82
2023/02/22 00:15:35;;;;;;;14.82;9.43;;;11.10;90.10;;;;;;5093652;28;20028;-82
2023/02/22 00:18:03;;;;;;;15.52;10.00;;;11.10;90.10;;;;;;5092767;28;20465;-82
2023/02/22 00:20:28;;;;;;;15.77;10.63;;;11.10;90.10;;;;;;5074701;28;20074;-80
2023/02/22 00:22:54;;;;;;;14.15;9.52;;;11.10;90.10;;;;;;5075190;28;20012;-81
2023/02/22 00:25:22;;;;;;;19.40;9.82;;;11.10;90.10;;;;;;5092491;28;20065;-82
2023/02/22 00:27:52;;;;;;;15.70;9.70;;;11.10;90.10;;;;;;5074675;28;20031;-81
2023/02/22 00:30:21;;;;;;;15.25;10.00;;;11.10;90.10;;;;;;5074878;28;20428;-82
2023/02/22 00:32:48;;;;;;;14.80;9.45;;;11.10;90.10;;;;;;5074954;28;20054;-83
2023/02/22 00:35:15;;;;;;;16.15;10.05;;;11.10;90.10;;;;;;5080681;28;20027;-83
2023/02/22 00:37:41;;;;;;;16.35;10.32;;;11.10;90.20;;;;;;5098901;28;20119;-83
2023/02/22 00:40:11;;;;;;;14.98;9.73;;;11.00;90.10;;;;;;5098546;28;20048;-82
2023/02/22 00:42:37;;;;;;;15.50;9.75;;;11.10;90.10;;;;;;5077721;28;20045;-83
2023/02/22 00:45:04;;;;;;;15.68;10.02;;;11.10;90.10;;;;;;5078062;28;20038;-83
2023/02/22 00:47:30;;;;;;;14.15;9.43;;;11.10;90.20;;;;;;5078988;28;20378;-83
2023/02/22 00:49:55;;;;;;;14.68;9.73;;;11.10;90.20;;;;;;5096711;28;20056;-83
2023/02/22 00:52:21;;;;;;;14.88;9.77;;;11.10;90.10;;;;;;5097006;28;20496;-83
2023/02/22 00:54:47;;;;;;;13.82;8.95;;;11.10;90.10;;;;;;5078650;28;20020;-83
2023/02/22 00:57:12;;;;;;;15.18;9.63;;;11.10;90.10;;;;;;5101114;28;20016;-83
2023/02/22 00:59:38;;;;;;;15.68;10.07;;;11.10;90.10;;;;;;5100860;28;20032;-83
2023/02/22 01:02:03;;;;;;;15.00;9.65;;;11.10;90.10;;;;;;5081951;28;20024;-83
2023/02/22 01:04:29;;;;;;;14.95;9.52;;;11.10;90.20;;;;;;5081937;28;20047;-83
2023/02/22 01:06:54;;;;;;;15.40;9.85;;;11.10;90.20;;;;;;5100419;28;20145;-83
2023/02/22 01:09:20;;;;;;;14.68;9.50;;;11.10;90.10;;;;;;5082089;28;20116;-83
2023/02/22 01:11:47;;;;;;;13.95;8.88;;;11.10;90.10;;;;;;5100009;28;20028;-83
2023/02/22 01:14:13;;;;;;;14.27;9.52;;;11.10;90.10;;;;;;5081121;28;20036;-83
2023/02/22 01:16:38;;;;;;;14.48;9.50;;;11.00;90.10;;;;;;5099453;28;20020;-83
2023/02/22 01:19:05;;;;;;;14.50;9.25;;;11.10;90.10;;;;;;5080958;28;20389;-83
2023/02/22 01:21:31;;;;;;;15.70;9.70;;;11.10;90.20;;;;;;5080800;28;20020;-83
2023/02/22 01:23:56;;;;;;;14.57;9.43;;;11.10;90.10;;;;;;5079404;28;20091;-83
2023/02/22 01:26:22;;;;;;;15.25;10.07;;;11.10;90.10;;;;;;5101417;28;20020;-83
2023/02/22 01:28:47;;;;;;;14.43;8.98;;;11.10;90.20;;;;;;5082947;28;20089;-82
2023/02/22 01:31:13;;;;;;;20.10;9.80;;;11.00;90.10;;;;;;5100739;28;20461;-83
2023/02/22 01:33:40;;;;;;;14.52;9.60;;;11.10;90.10;;;;;;5082436;28;20078;-83
2023/02/22 01:36:10;;;;;;;14.30;9.50;;;11.10;90.10;;;;;;5082652;28;20035;-83
2023/02/22 01:38:36;;;;;;;14.23;8.95;;;11.10;90.40;;;;;;5082280;28;20465;-83
2023/02/22 01:41:04;;;;;;;13.93;9.00;;;11.10;90.20;;;;;;5100492;28;20024;-83
2023/02/22 01:43:31;;;;;;;14.02;9.18;;;11.10;90.10;;;;;;5081347;28;20028;-83
2023/02/22 01:46:19;;;;;;;13.55;8.93;;;11.00;90.10;;;;;;5100044;28;20465;-83
2023/02/22 01:48:50;;;;;;;15.40;9.02;;;11.10;90.10;;;;;;5100184;28;20041;-83
2023/02/22 01:51:29;;;;;;;13.13;8.63;;;11.10;90.20;;;;;;5081720;28;20039;-83
2023/02/22 01:54:03;;;;;;;14.98;9.32;;;11.10;90.10;;;;;;5081285;28;20039;-83
2023/02/22 01:56:33;;;;;;;14.38;9.27;;;11.10;90.20;;;;;;5080949;28;20021;-83
2023/02/22 01:59:04;;;;;;;14.43;9.05;;;11.10;90.20;;;;;;5099025;28;20036;-83
2023/02/22 02:01:30;;;;;;;13.77;8.43;;;11.00;90.10;;;;;;5080734;28;20035;-83
2023/02/22 02:03:58;;;;;;;14.57;9.18;;;11.10;90.20;;;;;;5080044;28;20024;-82
2023/02/22 02:06:25;;;;;;;13.98;8.88;;;11.10;90.10;;;;;;5097949;28;20027;-82
2023/02/22 02:09:09;;;;;;;13.45;9.15;;;11.00;90.10;;;;;;5077484;28;20397;-82
2023/02/22 02:11:36;;;;;;;13.75;9.02;;;11.10;90.10;;;;;;5097339;28;20044;-82
2023/02/22 02:14:01;;;;;;;13.43;8.52;;;11.10;90.10;;;;;;5079615;28;20516;-82
2023/02/22 02:16:40;;;;;;;15.15;9.73;;;11.10;90.10;;;;;;5079835;28;20021;-83
2023/02/22 02:19:17;;;;;;;14.73;9.30;;;11.10;90.10;;;;;;5097893;28;20028;-83
2023/02/22 02:22:12;;;;;;;14.50;9.48;;;11.10;90.10;;;;;;5079738;28;20024;-83
2023/02/22 02:25:07;;;;;;;13.35;8.80;;;11.10;90.10;;;;;;5042206;28;20033;-81
2023/02/22 02:27:56;;;;;;;13.63;8.38;;;11.10;90.10;;;;;;5076837;28;20024;-82
2023/02/22 02:30:31;;;;;;;13.25;8.73;;;11.10;90.10;;;;;;5076952;28;20024;-82
2023/02/22 02:33:22;;;;;;;12.77;8.20;;;11.10;90.10;;;;;;5096708;28;20034;-82
2023/02/22 02:36:08;;;;;;;13.88;8.95;;;11.10;90.10;;;;;;5095699;28;20035;-82
2023/02/22 02:38:45;;;;;;;13.93;8.18;;;11.10;90.10;;;;;;5078208;28;20032;-83
2023/02/22 02:41:20;;;;;;;14.40;9.25;;;11.10;90.10;;;;;;5078589;28;20123;-82
2023/02/22 02:44:21;;;;;;;13.82;9.23;;;11.10;90.10;;;;;;5077848;28;20038;-83
2023/02/22 02:47:08;;;;;;;13.25;8.75;;;11.10;90.10;;;;;;5075750;28;20036;-83
2023/02/22 02:49:53;;;;;;;15.10;9.43;;;11.10;90.10;;;;;;5076918;28;20056;-79
2023/02/22 02:52:23;;;;;;;13.77;8.55;;;11.10;90.20;;;;;;5095360;28;20024;-82
2023/02/22 02:54:50;;;;;;;13.25;8.80;;;11.00;90.10;;;;;;5094108;28;20024;-83
2023/02/22 02:57:15;;;;;;;14.25;8.93;;;11.00;90.10;;;;;;5094655;28;20031;-82
2023/02/22 02:59:41;;;;;;;13.57;8.93;;;11.10;90.10;;;;;;5076099;28;20028;-82
2023/02/22 03:02:24;;;;;;;14.02;8.85;;;11.10;90.10;;;;;;5094474;28;20055;-82
2023/02/22 03:04:53;;;;;;;13.50;8.55;;;11.00;90.10;;;;;;5094404;28;20035;-82
2023/02/22 03:07:31;;;;;;;13.65;8.93;;;11.10;90.10;;;;;;5076350;28;20451;-81
2023/02/22 03:10:17;;;;;;;12.77;8.52;;;11.10;90.40;;;;;;5094702;28;20401;-82
2023/02/22 03:12:50;;;;;;;14.27;9.10;;;11.10;90.10;;;;;;5094467;28;20028;-82
2023/02/22 03:15:31;;;;;;;13.18;8.55;;;11.10;90.10;;;;;;5093786;28;20028;-82
2023/02/22 03:18:05;;;;;;;13.20;8.35;;;11.10;90.10;;;;;;5093765;28;20030;-82
2023/02/22 03:20:38;;;;;;;13.65;8.32;;;11.10;90.10;;;;;;5076369;28;20043;-82
2023/02/22 03:23:09;;;;;;;13.88;8.73;;;11.10;90.10;;;;;;5075682;28;20055;-82
2023/02/22 03:25:50;;;;;;;13.65;8.57;;;11.10;90.10;;;;;;5075571;28;20721;-82
2023/02/22 03:28:19;;;;;;;13.50;8.80;;;11.00;90.10;;;;;;5094103;28;20107;-82
2023/02/22 03:30:50;;;;;;;14.13;8.90;;;11.10;90.10;;;;;;5075799;28;20044;-82
2023/02/22 03:33:32;;;;;;;13.02;8.15;;;11.10;90.10;;;;;;5076392;28;20016;-81
2023/02/22 03:36:02;;;;;;;13.20;8.60;;;11.10;90.10;;;;;;5076052;28;20397;-82
2023/02/22 03:38:31;;;;;;;15.27;9.50;;;11.00;90.10;;;;;;5093252;28;20073;-82
2023/02/22 03:40:59;;;;;;;14.25;9.32;;;11.10;90.40;;;;;;5075662;28;20024;-82
2023/02/22 03:43:30;;;;;;;13.73;8.88;;;11.10;90.10;;;;;;5093978;28;20046;-83
2023/02/22 03:45:57;;;;;;;12.45;7.78;;;11.10;90.10;;;;;;5094281;28;20362;-83
2023/02/22 03:48:36;;;;;;;12.70;8.10;;;11.10;90.10;;;;;;5094030;28;20020;-82
2023/02/22 03:51:03;;;;;;;13.48;8.60;;;11.00;90.10;;;;;;5093469;28;20020;-81
2023/02/22 03:53:31;;;;;;;14.43;9.13;;;11.10;90.10;;;;;;5075197;28;20024;-81
2023/02/22 03:55:58;;;;;;;13.50;8.63;;;11.10;90.10;;;;;;5073770;28;20482;-80
2023/02/22 03:58:26;;;;;;;13.13;8.63;;;11.10;90.10;;;;;;5084311;28;20078;-82
2023/02/22 04:00:52;;;;;;;13.65;8.50;;;11.10;90.10;;;;;;5075440;28;20501;-82
2023/02/22 04:03:19;;;;;;;13.07;8.43;;;11.10;90.10;;;;;;5093535;28;20016;-82
2023/02/22 04:05:45;;;;;;;12.30;7.80;;;11.10;90.10;;;;;;5097755;28;20077;-83
2023/02/22 04:08:10;;;;;;;12.55;8.23;;;11.10;90.10;;;;;;5097291;28;20028;-82
2023/02/22 04:10:36;;;;;;;12.38;7.68;;;11.10;90.10;;;;;;5097195;28;20068;-82
2023/02/22 04:13:02;;;;;;;12.35;7.80;;;11.00;90.10;;;;;;5079062;28;20020;-83
2023/02/22 04:15:28;;;;;;;13.60;8.27;;;11.10;90.10;;;;;;5088090;28;20085;-82
2023/02/22 04:17:53;;;;;;;12.50;8.30;;;11.10;90.10;;;;;;5077731;28;20108;-82
2023/02/22 04:20:24;;;;;;;12.80;8.55;;;11.00;90.10;;;;;;5059081;28;20099;-83
2023/02/22 04:22:53;;;;;;;12.82;7.88;;;11.00;90.10;;;;;;5059223;28;20017;-83
2023/02/22 04:25:20;;;;;;;12.63;7.93;;;11.00;90.10;;;;;;5058716;28;20029;-83
2023/02/22 04:27:45;;;;;;;11.95;7.65;;;11.00;90.10;;;;;;5076720;28;20056;-83
2023/02/22 04:30:11;;;;;;;12.32;7.82;;;11.00;90.10;;;;;;5058816;28;20027;-83
2023/02/22 04:32:38;;;;;;;14.02;8.65;;;11.00;90.10;;;;;;5058924;28;20449;-83
2023/02/22 04:35:05;;;;;;;12.88;7.88;;;11.00;90.10;;;;;;5076383;28;20028;-83
2023/02/22 04:37:33;;;;;;;13.48;8.52;;;11.00;90.10;;;;;;5057939;28;20035;-83
2023/02/22 04:40:06;;;;;;;12.70;7.50;;;11.10;90.10;;;;;;5058417;28;20024;-83
2023/02/22 04:42:31;;;;;;;13.43;8.63;;;11.10;90.10;;;;;;5058019;28;20024;-83
2023/02/22 04:44:57;;;;;;;12.88;8.45;;;11.00;90.10;;;;;;5076412;28;20521;-83
2023/02/22 04:47:22;;;;;;;11.90;7.28;;;11.10;90.10;;;;;;5073616;28;20408;-83
2023/02/22 04:49:48;;;;;;;12.60;7.97;;;11.00;90.10;;;;;;5054914;28;20119;-83
2023/02/22 04:52:14;;;;;;;12.23;7.90;;;11.00;90.10;;;;;;5054796;28;20028;-84
2023/02/22 04:54:40;;;;;;;12.23;7.43;;;11.00;90.10;;;;;;5054342;28;20561;-82
2023/02/22 04:57:05;;;;;;;12.90;8.07;;;11.00;90.10;;;;;;5079536;28;20044;-84
2023/02/22 04:59:31;;;;;;;11.80;7.18;;;11.00;90.10;;;;;;5061556;28;20037;-83
2023/02/22 05:01:57;;;;;;;13.57;8.38;;;11.00;90.10;;;;;;5055690;28;20025;-81
2023/02/22 05:04:23;;;;;;;12.05;7.68;;;11.00;90.10;;;;;;5053819;28;20028;-81
2023/02/22 05:06:48;;;;;;;10.82;7.15;;;11.00;90.10;;;;;;5073009;28;20146;-80
2023/02/22 05:09:14;;;;;;;11.93;7.38;;;11.10;90.10;;;;;;5094928;28;20043;-81
2023/02/22 05:11:39;;;;;;;11.30;7.20;;;11.00;90.10;;;;;;5094772;28;20024;-80
2023/02/22 05:14:05;;;;;;;10.73;6.72;;;11.00;90.10;;;;;;5112925;28;20035;-81
2023/02/22 05:16:30;;;;;;;11.23;7.45;;;11.00;90.10;;;;;;5095061;28;20035;-80
2023/02/22 05:18:56;;;;;;;12.27;7.72;;;11.00;90.10;;;;;;5096040;28;20028;-80
2023/02/22 05:21:22;;;;;;;11.45;7.30;;;11.00;90.10;;;;;;5095066;28;20062;-81
2023/02/22 05:23:47;;;;;;;11.02;7.38;;;11.00;90.10;;;;;;5092562;28;20028;-79
2023/02/22 05:26:13;;;;;;;11.70;7.20;;;11.00;90.10;;;;;;5111692;28;20085;-80
2023/02/22 05:28:38;;;;;;;11.32;7.38;;;11.00;90.10;;;;;;5093063;28;20043;-80
2023/02/22 05:31:06;;;;;;;10.70;6.95;;;11.00;90.10;;;;;;5092678;28;20027;-80
2023/02/22 05:33:31;;;;;;;10.77;6.63;;;11.00;90.10;;;;;;5093029;28;20059;-81
2023/02/22 05:35:57;;;;;;;11.50;7.45;;;11.00;90.10;;;;;;5093934;28;20755;-81
2023/02/22 05:38:22;;;;;;;11.68;7.05;;;11.00;90.10;;;;;;5111978;28;20102;-80
2023/02/22 05:40:48;;;;;;;11.27;7.00;;;11.00;90.10;;;;;;5093524;28;20038;-82
2023/02/22 05:43:14;;;;;;;10.98;6.97;;;11.00;90.10;;;;;;5115428;28;20096;-80
2023/02/22 05:45:40;;;;;;;10.93;6.95;;;11.00;90.10;;;;;;5095901;28;20023;-79
2023/02/22 05:48:06;;;;;;;11.82;7.25;;;11.00;90.10;;;;;;5095081;28;20047;-79
2023/02/22 05:50:32;;;;;;;10.95;6.60;;;11.00;90.10;;;;;;5112904;28;20089;-79
2023/02/22 05:52:58;;;;;;;11.65;7.30;;;11.00;90.00;;;;;;5114522;28;20031;-80
2023/02/22 05:55:24;;;;;;;12.20;7.35;;;11.00;90.10;;;;;;5096112;28;20032;-81
2023/02/22 05:57:51;;;;;;;10.68;6.75;;;11.00;90.10;;;;;;5114951;28;20532;-80
2023/02/22 06:00:29;;;;;;;11.13;7.40;;;11.00;90.00;;;;;;5096008;28;20039;-80
2023/02/22 06:02:54;;;;;;;10.63;6.50;;;11.00;90.10;;;;;;5096069;28;20081;-79
2023/02/22 06:05:20;;;;;;;11.32;7.25;;;11.00;90.10;;;;;;5114616;28;20032;-80
2023/02/22 06:07:46;;;;;;;11.20;7.03;;;11.00;90.00;;;;;;5093595;28;20122;-80
2023/02/22 06:10:12;;;;;;;10.98;7.10;;;11.00;90.00;;;;;;5095301;28;20037;-79
2023/02/22 06:12:38;;;;;;;10.93;7.13;;;11.00;90.00;;;;;;5082115;28;20035;-80
2023/02/22 06:15:04;;;;;;;11.00;6.93;;;11.00;90.00;;;;;;5077796;28;20036;-80
2023/02/22 06:17:29;;;;;;;9.90;6.20;;;11.00;90.00;;;;;;5074681;28;20016;-78
2023/02/22 06:19:55;;;;;;;11.00;7.05;;;11.00;90.20;;;;;;5075186;28;20048;-78
2023/02/22 06:22:20;;;;;;;10.52;6.70;;;11.00;90.00;;;;;;5073177;28;20111;-81
2023/02/22 06:24:46;;;;;;;11.25;6.85;;;11.00;90.00;;;;;;5073148;28;20353;-80
2023/02/22 06:27:11;;;;;;;11.13;6.75;;;10.90;90.00;;;;;;5073844;28;20533;-80
2023/02/22 06:29:37;;;;;;;10.45;6.65;;;11.00;90.00;;;;;;5092300;28;20140;-79
2023/02/22 06:32:02;;;;;;;10.95;7.05;;;11.00;90.00;;;;;;5074859;28;20144;-82
2023/02/22 06:34:28;;;;;;;11.40;7.22;;;11.00;90.00;;;;;;5094788;28;20028;-82
2023/02/22 06:36:53;;;;;;;11.65;6.70;;;11.00;89.90;;;;;;5096067;28;20028;-81
2023/02/22 06:39:19;;;;;;;12.43;7.03;;;11.00;89.80;;;;;;5096195;28;20085;-81
2023/02/22 06:41:45;;;;;;;10.77;6.85;;;11.00;89.80;;;;;;5074820;28;20111;-79
2023/02/22 06:44:13;;;;;;;10.45;6.75;;;11.00;89.80;;;;;;5074232;28;20392;-82
2023/02/22 06:46:38;;;;;;;10.75;6.68;;;11.00;89.90;;;;;;5092489;28;20020;-80
2023/02/22 06:49:04;;;;;;;11.63;6.90;;;11.00;89.90;;;;;;5073058;28;20035;-82
2023/02/22 06:51:35;;;;;;;12.05;6.95;;;11.00;89.90;;;;;;5091239;28;20024;-82
2023/02/22 06:54:01;;;;;;;11.57;7.10;;;11.00;89.90;;;;;;5073289;28;20028;-82
2023/02/22 06:56:27;;;;;;;11.32;6.80;;;11.00;89.80;;;;;;5073734;28;20050;-81
2023/02/22 06:58:52;;;;;;;11.20;6.60;;;11.10;89.80;;;;;;5092346;28;20040;-82
2023/02/22 07:01:18;;;;;;;12.43;7.10;;;11.10;89.80;;;;;;5093073;28;20082;-82
2023/02/22 07:03:43;;;;;;;10.18;6.38;;;11.10;90.00;;;;;;5092768;28;20028;-80
2023/02/22 07:06:09;;;;;;;12.80;7.10;;;11.10;89.60;;;;;;5074815;28;20397;-82
2023/02/22 07:08:35;;;;;;;11.27;7.20;;;11.10;89.60;;;;;;5074669;28;20393;-82
2023/02/22 07:11:01;;;;;;;12.23;7.30;;;11.10;89.40;;;;;;5074973;28;20024;-82
2023/02/22 07:13:26;;;;;;;12.25;6.93;;;11.20;89.50;;;;;;5092594;28;20443;-81
2023/02/22 07:15:52;;;;;;;10.27;6.53;;;11.10;89.30;;;;;;5074715;28;20461;-82
2023/02/22 07:18:17;;;;;;;10.35;6.38;;;11.10;89.30;;;;;;5074486;28;20562;-81
2023/02/22 07:20:43;;;;;;;10.57;6.57;;;11.20;89.30;;;;;;5074627;28;20038;-82
2023/02/22 07:23:08;;;;;;;11.18;7.20;;;11.20;89.30;;;;;;5092762;28;20032;-82
2023/02/22 07:25:34;;;;;;;11.15;6.40;;;11.20;89.20;;;;;;5092157;28;20024;-82
2023/02/22 07:28:00;;;;;;;11.93;6.65;;;11.20;89.20;;;;;;5074335;28;20465;-82
2023/02/22 07:30:29;;;;;;;10.57;6.78;;;11.20;89.10;;;;;;5092386;28;20024;-82
2023/02/22 07:32:57;;;;;;;9.55;5.90;;;11.20;89.10;;;;;;5074377;28;20024;-82
2023/02/22 07:35:28;;;;;;;9.85;6.10;;;11.20;89.00;;;;;;5095242;28;20021;-82
2023/02/22 07:37:54;;;;;;;10.05;5.95;;;11.30;89.00;;;;;;5099335;28;20024;-82
2023/02/22 07:40:20;;;;;;;9.77;5.97;;;11.20;88.90;;;;;;5098646;28;20016;-82
2023/02/22 07:42:54;;;;;;;10.80;6.30;;;11.30;89.00;;;;;;5079852;28;20053;-82
2023/02/22 07:45:22;;;;;;;11.10;6.32;;;11.20;88.80;;;;;;5079747;28;20076;-82
2023/02/22 07:47:47;;;;;;;10.10;6.55;;;11.30;88.80;;;;;;5079978;28;20090;-82
2023/02/22 07:50:17;;;;;;;10.40;6.45;;;11.30;88.70;;;;;;5079404;28;20417;-82
2023/02/22 07:52:47;;;;;;;10.05;6.35;;;11.30;88.70;;;;;;5078358;28;20547;-82
2023/02/22 07:55:17;;;;;;;10.45;6.25;;;11.30;88.70;;;;;;5091385;28;20038;-82
2023/02/22 07:57:48;;;;;;;10.18;6.15;;;11.30;88.60;;;;;;5096916;28;20104;-82
2023/02/22 08:00:20;;;;;;;10.27;6.28;;;11.30;88.60;;;;;;5078302;28;20573;-82
2023/02/22 08:02:45;;;;;;;10.43;6.25;;;11.30;88.50;;;;;;5096855;28;20073;-82
2023/02/22 08:05:13;;;;;;;9.85;5.90;;;11.30;88.40;;;;;;5095750;28;20031;-82
2023/02/22 08:07:38;;;;;;;10.30;6.20;;;11.40;88.50;;;;;;5078463;28;20032;-82
2023/02/22 08:10:06;;;;;;;9.73;5.97;;;11.40;88.50;;;;;;5096669;28;20028;-82
2023/02/22 08:12:37;;;;;;;11.18;6.35;;;11.30;88.40;;;;;;5077831;28;20054;-82
2023/02/22 08:15:08;;;;;;;10.63;6.45;;;11.40;88.50;;;;;;5095598;28;20024;-82
2023/02/22 08:17:33;;;;;;;9.63;5.97;;;11.40;88.50;;;;;;5077188;28;20028;-82
2023/02/22 08:20:00;;;;;;;9.50;5.85;;;11.30;88.40;;;;;;5094606;28;20028;-82
2023/02/22 08:22:28;;;;;;;10.55;6.70;;;11.40;88.40;;;;;;5075615;28;20162;-82
2023/02/22 08:24:53;;;;;;;9.95;6.20;;;11.40;88.40;;;;;;5075590;28;20028;-82
2023/02/22 08:27:24;;;;;;;10.50;6.00;;;11.40;88.40;;;;;;5094218;28;20024;-82
2023/02/22 08:29:50;;;;;;;10.40;6.55;;;11.40;88.30;;;;;;5098786;28;20108;-83
2023/02/22 08:32:16;;;;;;;9.88;6.10;;;11.40;88.20;;;;;;5078323;28;20028;-82
2023/02/22 08:34:42;;;;;;;9.75;5.97;;;11.40;88.20;;;;;;5079780;28;20034;-82
2023/02/22 08:37:08;;;;;;;9.40;5.68;;;11.40;88.10;;;;;;5097593;28;20119;-82
2023/02/22 08:39:33;;;;;;;10.15;6.22;;;11.50;88.10;;;;;;5097394;28;20044;-82
2023/02/22 08:41:59;;;;;;;8.90;5.53;;;11.50;88.00;;;;;;5097989;28;20541;-82
2023/02/22 08:44:24;;;;;;;9.57;5.90;;;11.50;87.90;;;;;;5078331;28;20020;-82
2023/02/22 08:46:50;;;;;;;9.60;5.70;;;11.50;87.80;;;;;;5097247;28;20036;-82
2023/02/22 08:49:16;;;;;;;9.00;5.43;;;11.60;87.70;;;;;;5078316;28;20046;-79
2023/02/22 08:51:41;;;;;;;9.23;5.82;;;11.60;87.70;;;;;;5096326;28;20024;-82
2023/02/22 08:54:07;;;;;;;9.95;5.97;;;11.60;87.60;;;;;;5095780;28;20032;-82
2023/02/22 08:56:32;;;;;;;9.10;5.57;;;11.70;87.50;;;;;;5077460;28;20023;-82
2023/02/22 08:58:58;;;;;;;9.82;5.90;;;11.60;87.40;;;;;;5077942;28;20115;-82
2023/02/22 09:01:23;;;;;;;9.02;5.63;;;11.60;87.40;;;;;;5076861;28;20031;-82
2023/02/22 09:03:50;;;;;;;9.82;5.88;;;11.70;87.40;;;;;;5094906;28;20028;-82
2023/02/22 09:06:16;;;;;;;9.50;5.63;;;11.60;87.30;;;;;;5076682;28;20024;-83
2023/02/22 09:08:42;;;;;;;8.73;5.53;;;11.70;87.30;;;;;;5077190;28;20028;-82
2023/02/22 09:11:07;;;;;;;9.55;6.20;;;11.70;87.20;;;;;;5095207;28;20039;-82
2023/02/22 09:13:33;;;;;;;9.27;5.53;;;11.70;87.20;;;;;;5076029;28;20089;-82
2023/02/22 09:15:58;;;;;;;9.00;5.45;;;11.70;87.20;;;;;;5094129;28;20031;-80
2023/02/22 09:18:26;;;;;;;8.65;5.30;;;11.70;87.10;;;;;;5095245;28;20115;-82
2023/02/22 09:20:52;;;;;;;9.80;5.95;;;11.70;87.10;;;;;;5080450;28;20077;-82
2023/02/22 09:23:19;;;;;;;9.82;5.95;;;11.80;87.10;;;;;;5079208;28;20032;-81
2023/02/22 09:25:46;;;;;;;9.07;5.55;;;11.80;87.10;;;;;;5078839;28;20036;-82
2023/02/22 09:28:11;;;;;;;11.02;6.25;;;11.80;87.10;;;;;;5076562;28;20615;-82
2023/02/22 09:30:37;;;;;;;9.63;5.72;;;11.80;87.10;;;;;;5076601;28;20053;-82
2023/02/22 09:33:08;;;;;;;10.43;6.40;;;11.80;87.00;;;;;;5095391;28;20105;-82
2023/02/22 09:35:34;;;;;;;9.10;5.90;;;11.70;87.00;;;;;;5075970;28;20028;-82
2023/02/22 09:38:01;;;;;;;9.98;6.03;;;11.80;87.10;;;;;;5078867;28;20032;-82
2023/02/22 09:40:32;;;;;;;9.52;6.15;;;11.80;87.10;;;;;;5078773;28;20024;-82
2023/02/22 09:43:27;;;;;;;9.77;6.10;;;11.70;87.10;;;;;;5096910;28;20558;-82
2023/02/22 09:46:17;;;;;;;9.70;5.95;;;11.70;87.10;;;;;;5078681;28;20542;-81
2023/02/22 09:49:06;;;;;;;9.30;5.63;;;11.70;87.20;;;;;;5076392;28;20031;-82
2023/02/22 09:51:37;;;;;;;9.57;5.32;;;11.70;87.10;;;;;;5095643;28;20035;-81
2023/02/22 09:54:13;;;;;;;9.35;5.70;;;11.70;87.10;;;;;;5077347;28;20028;-82
2023/02/22 09:56:39;;;;;;;10.75;6.18;;;11.70;87.10;;;;;;5098170;28;20024;-82
2023/02/22 09:59:11;;;;;;;9.32;5.50;;;11.70;87.10;;;;;;5078420;28;20024;-82
2023/02/22 10:01:43;;;;;;;9.80;5.47;;;11.80;87.10;;;;;;5077418;28;20082;-82
2023/02/22 10:04:18;;;;;;;10.10;6.20;;;11.80;87.00;;;;;;5095028;28;20032;-82
2023/02/22 10:06:58;;;;;;;9.85;5.80;;;11.80;86.90;;;;;;5095661;28;20031;-82
2023/02/22 10:09:26;;;;;;;9.90;5.97;;;11.80;86.80;;;;;;5077260;28;20326;-82
2023/02/22 10:12:04;;;;;;;8.95;5.50;;;11.90;86.70;;;;;;5077057;28;20024;-82
2023/02/22 10:14:52;;;;;;;9.75;5.63;;;11.90;86.60;;;;;;5076364;28;20036;-82
2023/02/22 10:17:43;;;;;;;9.15;5.55;;;11.90;86.50;;;;;;5094833;28;20035;-81
2023/02/22 10:20:27;;;;;;;8.90;5.38;;;11.90;86.40;;;;;;5093758;28;20024;-82
2023/02/22 10:23:08;;;;;;;8.82;5.65;;;12.00;86.40;;;;;;5093944;28;20498;-82
2023/02/22 10:25:36;;;;;;;9.45;5.82;;;12.00;86.30;;;;;;5075794;28;20028;-82
2023/02/22 10:28:20;;;;;;;8.98;5.47;;;12.10;86.30;;;;;;5093687;28;20056;-82
2023/02/22 10:30:57;;;;;;;8.45;5.35;;;12.10;86.10;;;;;;5093640;28;20024;-82
2023/02/22 10:33:28;;;;;;;8.75;5.30;;;12.10;86.00;;;;;;5093456;28;20485;-82
2023/02/22 10:35:55;;;;;;;8.60;5.32;;;12.10;86.00;;;;;;5075554;28;20027;-82
2023/02/22 10:38:25;;;;;;;9.05;5.65;;;12.10;85.90;;;;;;5075386;28;20024;-82
2023/02/22 10:41:00;;;;;;;9.30;5.72;;;12.10;85.90;;;;;;5094317;28;20012;-82
2023/02/22 10:43:26;;;;;;;9.70;5.65;;;12.10;85.90;;;;;;5075567;28;20023;-80
2023/02/22 10:45:56;;;;;;;9.52;5.70;;;12.10;85.90;;;;;;5093567;28;20287;-82
2023/02/22 10:48:24;;;;;;;9.07;5.60;;;12.10;86.00;;;;;;5075088;28;20042;-80
2023/02/22 10:50:53;;;;;;;9.50;5.75;;;12.10;86.00;;;;;;5074747;28;20035;-82
2023/02/22 10:53:18;;;;;;;10.10;5.93;;;12.10;86.00;;;;;;5074659;28;20028;-81
2023/02/22 10:56:20;;;;;;;8.68;5.60;;;12.10;86.00;;;;;;5093311;28;20043;-82
2023/02/22 10:58:53;;;;;;;9.23;5.55;;;12.10;86.00;;;;;;5074896;28;20031;-82
2023/02/22 11:01:31;;;;;;;8.77;5.35;;;12.10;86.00;;;;;;5074775;28;20020;-81
2023/02/22 11:04:11;;;;;;;9.55;5.53;;;12.10;86.00;;;;;;5074554;28;20020;-82
2023/02/22 11:06:39;;;;;;;8.73;5.78;;;12.10;86.00;;;;;;5092936;28;20104;-82
2023/02/22 11:09:22;;;;;;;8.27;4.93;;;12.10;86.00;;;;;;5093491;28;20039;-81
2023/02/22 11:11:50;;;;;;;9.52;5.90;;;12.10;86.00;;;;;;5074802;28;20051;-82
2023/02/22 11:14:28;;;;;;;9.48;5.82;;;12.10;86.00;;;;;;5076010;28;20028;-83
2023/02/22 11:16:56;;;;;;;9.05;5.68;;;12.10;86.00;;;;;;5081048;28;20020;-82
2023/02/22 11:19:28;;;;;;;8.85;5.65;;;12.20;86.10;;;;;;5080774;28;20073;-82
2023/02/22 11:22:20;;;;;;;9.15;5.78;;;12.20;86.00;;;;;;5098637;28;20055;-82
2023/02/22 11:24:53;;;;;;;9.38;5.70;;;12.20;86.00;;;;;;5098132;28;20050;-82
2023/02/22 11:27:30;;;;;;;8.05;5.10;;;12.20;85.90;;;;;;5098180;28;20473;-82
2023/02/22 11:30:09;;;;;;;9.18;5.80;;;12.20;85.80;;;;;;5098702;28;20085;-82
2023/02/22 11:32:35;;;;;;;10.20;6.05;;;12.20;85.80;;;;;;5079428;28;20439;-82
2023/02/22 11:35:19;;;;;;;9.68;5.93;;;12.30;85.80;;;;;;5096942;28;20401;-82
2023/02/22 11:37:44;;;;;;;8.82;5.32;;;12.30;85.80;;;;;;5079460;28;20021;-82
2023/02/22 11:40:21;;;;;;;8.57;5.05;;;12.30;85.80;;;;;;5077967;28;20549;-82
2023/02/22 11:42:49;;;;;;;8.02;4.95;;;12.30;85.80;;;;;;5078769;28;20034;-82
2023/02/22 11:45:23;;;;;;;9.00;5.70;;;12.30;85.80;;;;;;5077447;28;20032;-82
2023/02/22 11:47:53;;;;;;;9.45;5.38;;;12.30;85.80;;;;;;5076578;28;20083;-82
2023/02/22 11:50:26;;;;;;;9.27;5.40;;;12.30;85.80;;;;;;5073860;28;20370;-81
2023/02/22 11:53:04;;;;;;;8.90;5.47;;;12.30;85.80;;;;;;5074388;28;20024;-82
2023/02/22 11:56:12;;;;;;;8.73;5.55;;;12.30;85.70;;;;;;5076028;28;20028;-82
2023/02/22 11:58:48;;;;;;;9.05;5.32;;;12.30;85.70;;;;;;5077117;28;20024;-82
2023/02/22 12:01:53;;;;;;;8.52;5.47;;;12.30;86.20;;;;;;5095810;28;20028;-82
2023/02/22 12:04:20;;;;;;;8.20;5.40;;;12.30;85.60;;;;;;5095176;28;20166;-82
2023/02/22 12:07:07;;;;;;;9.38;5.75;;;12.30;85.60;;;;;;5077309;28;20599;-82
2023/02/22 12:09:50;;;;;;;8.13;5.25;;;12.20;85.40;;;;;;5096752;28;20032;-83
2023/02/22 12:12:45;;;;;;;8.80;5.30;;;12.30;85.50;;;;;;5080120;28;20031;-82
2023/02/22 12:15:55;;;;;;;8.65;5.55;;;12.30;85.50;;;;;;5079713;28;20024;-82
2023/02/22 12:18:37;;;;;;;8.77;4.97;;;12.40;85.60;;;;;;4998473;28;20030;-82
2023/02/22 12:21:12;;;;;;;9.80;6.07;;;12.30;85.50;;;;;;5094110;28;20039;-82
2023/02/22 12:23:51;;;;;;;7.65;4.75;;;12.40;85.50;;;;;;5074821;28;20028;-82
2023/02/22 12:26:27;;;;;;;9.10;5.38;;;12.30;85.50;;;;;;5092448;28;20050;-82
2023/02/22 12:29:13;;;;;;;8.13;5.10;;;12.30;85.50;;;;;;5074203;28;20024;-82
2023/02/22 12:31:44;;;;;;;9.07;5.40;;;12.40;85.50;;;;;;5073441;28;20245;-82
2023/02/22 12:34:28;;;;;;;8.50;5.20;;;12.40;85.50;;;;;;5077626;28;20034;-82
2023/02/22 12:37:04;;;;;;;8.48;5.07;;;12.30;85.50;;;;;;5077817;28;20496;-82
2023/02/22 12:40:09;;;;;;;8.40;5.07;;;12.40;85.60;;;;;;5077702;28;20031;-82
2023/02/22 12:42:44;;;;;;;8.48;5.10;;;12.40;85.50;;;;;;5095879;28;20020;-82
2023/02/22 12:45:38;;;;;;;8.32;5.15;;;12.40;85.40;;;;;;5093457;28;20055;-82
2023/02/22 12:48:23;;;;;;;8.82;5.47;;;12.40;85.40;;;;;;5077056;28;20028;-82
2023/02/22 12:50:56;;;;;;;8.63;5.20;;;12.40;85.50;;;;;;5078630;28;20016;-82
2023/02/22 12:53:34;;;;;;;8.57;5.25;;;12.40;85.40;;;;;;5080048;28;20032;-82
2023/02/22 12:56:24;;;;;;;8.23;4.97;;;12.40;85.40;;;;;;5077385;28;20096;-82
2023/02/22 12:59:01;;;;;;;8.77;5.43;;;12.40;85.30;;;;;;5095304;28;20081;-82